Time;durP1;ratioP1;P1;durP2;ratioP2;P2;SDS_P1;SDS_P2;PMS_P1;PMS_P2;Temp;Humidity;BMP_temperature;BMP_pressure;BME280_temperature;BME280_humidity;BME280_pressure;Samples;Min_cycle;Max_cycle;Signal;HPM_P1;HPM_P2
2022/09/23 00:01:09;;;;;;;2.42;2.22;;;;;;;9.17;100.00;99207.84;1736977;81;21060;-62
2022/09/23 00:03:46;;;;;;;2.42;2.22;;;;;;;9.15;100.00;99206.22;1731823;81;21786;-61
2022/09/23 00:06:19;;;;;;;2.92;2.45;;;;;;;9.12;100.00;99210.22;1731246;81;21115;-61
2022/09/23 00:08:48;;;;;;;2.58;2.02;;;;;;;9.11;100.00;99207.23;1737090;81;21065;-61
2022/09/23 00:11:24;;;;;;;2.45;2.08;;;;;;;9.12;100.00;99205.88;1733714;81;20988;-61
2022/09/23 00:13:56;;;;;;;2.33;2.12;;;;;;;9.12;100.00;99205.03;1744938;81;21070;-61
2022/09/23 00:16:25;;;;;;;3.08;2.77;;;;;;;9.14;100.00;99204.52;1702458;83;21179;-61
2022/09/23 00:18:52;;;;;;;2.85;2.45;;;;;;;9.12;100.00;99207.17;1697462;82;20958;-61
2022/09/23 00:21:19;;;;;;;2.60;2.40;;;;;;;9.11;100.00;99203.34;1706819;83;21001;-62
2022/09/23 00:23:46;;;;;;;2.58;2.37;;;;;;;9.10;100.00;99198.61;1706325;83;21053;-61
2022/09/23 00:26:15;;;;;;;2.45;2.25;;;;;;;9.11;100.00;99197.70;1688226;84;21082;-61
2022/09/23 00:28:42;;;;;;;2.87;2.17;;;;;;;9.11;100.00;99191.22;1684577;84;21155;-61
2022/09/23 00:31:19;;;;;;;2.75;2.55;;;;;;;9.12;100.00;99185.13;1733567;81;21141;-61
2022/09/23 00:33:45;;;;;;;3.40;2.62;;;;;;;9.15;100.00;99197.13;1737164;81;21069;-61
2022/09/23 00:36:15;;;;;;;3.42;2.30;;;;;;;9.12;100.00;99187.72;1729479;81;21025;-61
2022/09/23 00:38:43;;;;;;;3.40;2.33;;;;;;;9.12;100.00;99188.17;1728076;81;21095;-62
2022/09/23 00:41:10;;;;;;;2.70;2.50;;;;;;;9.11;100.00;99186.48;1734484;81;21141;-62
2022/09/23 00:43:58;;;;;;;3.00;2.75;;;;;;;9.12;100.00;99185.13;1728634;81;21167;-62
2022/09/23 00:46:38;;;;;;;2.85;2.55;;;;;;;9.14;100.00;99186.36;1729815;81;21218;-62
2022/09/23 00:49:27;;;;;;;2.55;2.05;;;;;;;9.16;100.00;99187.15;1734714;81;21018;-62
2022/09/23 00:52:01;;;;;;;3.50;1.92;;;;;;;9.16;100.00;99187.15;1729169;81;21448;-62
2022/09/23 00:54:28;;;;;;;2.17;2.02;;;;;;;9.16;100.00;99188.45;1733719;81;21160;-62
2022/09/23 00:56:57;;;;;;;2.65;2.20;;;;;;;9.17;100.00;99192.28;1739105;81;21131;-62
2022/09/23 00:59:24;;;;;;;2.42;2.17;;;;;;;9.17;100.00;99178.45;1734172;81;21528;-61
2022/09/23 01:01:53;;;;;;;2.12;2.00;;;;;;;9.18;100.00;99183.59;1731606;81;21520;-61
2022/09/23 01:04:22;;;;;;;1.90;1.70;;;;;;;9.18;100.00;99184.89;1728722;81;21013;-62
2022/09/23 01:06:50;;;;;;;2.67;2.45;;;;;;;9.20;100.00;99183.50;1734440;81;20923;-61
2022/09/23 01:09:18;;;;;;;2.98;2.30;;;;;;;9.21;100.00;99180.84;1732553;81;20982;-61
2022/09/23 01:12:20;;;;;;;2.50;2.30;;;;;;;9.23;100.00;99179.48;1727255;81;20970;-61
2022/09/23 01:14:58;;;;;;;3.65;2.08;;;;;;;9.24;100.00;99182.02;1731824;81;21119;-62
2022/09/23 01:17:51;;;;;;;2.17;1.95;;;;;;;9.28;100.00;99182.30;1729646;81;21524;-60
2022/09/23 01:20:32;;;;;;;4.95;2.62;;;;;;;9.29;100.00;99178.80;1729144;81;21271;-61
2022/09/23 01:23:23;;;;;;;6.22;2.27;;;;;;;9.29;100.00;99172.76;1739540;81;20945;-62
2022/09/23 01:26:19;;;;;;;3.17;2.00;;;;;;;9.29;100.00;99180.09;1733083;81;20969;-62
2022/09/23 01:28:58;;;;;;;2.08;1.98;;;;;;;9.29;100.00;99172.76;1736438;81;21108;-61
2022/09/23 01:31:51;;;;;;;2.70;1.90;;;;;;;9.26;100.00;99171.13;1730305;81;21052;-61
2022/09/23 01:34:31;;;;;;;1.82;1.72;;;;;;;9.23;100.00;99160.87;1724440;81;21234;-61
2022/09/23 01:37:12;;;;;;;3.98;2.15;;;;;;;9.22;100.00;99170.02;1729391;81;20998;-61
2022/09/23 01:40:04;;;;;;;2.98;2.15;;;;;;;9.17;100.00;99165.03;1737243;81;21085;-61
2022/09/23 01:42:38;;;;;;;2.20;1.90;;;;;;;9.14;100.00;99159.97;1733238;81;21025;-63
2022/09/23 01:45:18;;;;;;;3.40;1.85;;;;;;;9.15;100.00;99168.59;1734019;81;21045;-63
2022/09/23 01:48:09;;;;;;;3.22;1.75;;;;;;;9.15;100.00;99168.14;1699102;82;22214;-62
2022/09/23 01:54:06;;;;;;;2.33;1.90;;;;;;;9.17;100.00;99162.89;1743724;81;21517;-61
2022/09/23 01:56:44;;;;;;;2.22;2.02;;;;;;;9.16;100.00;99165.94;1706597;82;21116;-61
2022/09/23 01:59:15;;;;;;;2.85;1.82;;;;;;;9.16;100.00;99166.39;1730156;81;20998;-62
2022/09/23 02:01:50;;;;;;;1.72;1.62;;;;;;;9.14;100.00;99161.27;1727680;81;21150;-62
2022/09/23 02:04:46;;;;;;;3.83;2.00;;;;;;;9.16;100.00;99158.61;1730579;81;21108;-61
2022/09/23 02:07:21;;;;;;;2.27;1.82;;;;;;;9.16;100.00;99158.16;1733639;81;21496;-61
2022/09/23 02:09:59;;;;;;;2.60;1.62;;;;;;;9.19;100.00;99153.30;1730237;81;21061;-61
2022/09/23 02:12:27;;;;;;;2.95;1.75;;;;;;;9.20;100.00;99154.95;1730577;81;21015;-62
2022/09/23 02:15:01;;;;;;;1.62;1.52;;;;;;;9.21;100.00;99156.19;1736330;81;21427;-62
2022/09/23 02:17:39;;;;;;;5.92;1.82;;;;;;;9.20;100.00;99151.06;1732590;81;21069;-61
2022/09/23 02:20:06;;;;;;;2.55;2.15;;;;;;;9.21;100.00;99152.30;1739084;81;21003;-62
2022/09/23 02:22:49;;;;;;;2.72;1.80;;;;;;;9.24;100.00;99154.77;1732233;81;21062;-61
2022/09/23 02:25:16;;;;;;;3.05;1.45;;;;;;;9.26;100.00;99158.16;1739595;81;21048;-62
2022/09/23 02:28:09;;;;;;;2.17;1.98;;;;;;;9.26;100.00;99155.56;1740384;81;21163;-61
2022/09/23 02:30:44;;;;;;;3.17;1.62;;;;;;;9.27;100.00;99159.84;1734881;81;20991;-62
2022/09/23 02:33:22;;;;;;;1.57;1.47;;;;;;;9.29;100.00;99153.30;1703042;83;21101;-62
2022/09/23 02:36:11;;;;;;;1.95;1.60;;;;;;;9.32;100.00;99157.06;1670730;84;21014;-62
2022/09/23 02:38:58;;;;;;;3.55;1.75;;;;;;;9.35;100.00;99156.09;1707244;83;20962;-62
2022/09/23 02:41:56;;;;;;;1.67;1.57;;;;;;;9.35;100.00;99158.70;1718039;82;21278;-62
2022/09/23 02:44:22;;;;;;;3.67;1.72;;;;;;;9.35;100.00;99156.95;1718465;82;20907;-62
2022/09/23 02:46:52;;;;;;;2.40;2.02;;;;;;;9.38;100.00;99154.68;1689963;84;21415;-62
2022/09/23 02:49:31;;;;;;;2.80;2.00;;;;;;;9.42;100.00;99157.06;1657893;84;21121;-62
2022/09/23 02:52:03;;;;;;;1.80;1.70;;;;;;;9.44;100.00;99155.70;1726786;81;21017;-61
2022/09/23 02:54:34;;;;;;;8.45;3.42;;;;;;;9.46;100.00;99159.08;1734405;81;21170;-62
2022/09/23 02:57:03;;;;;;;2.55;2.12;;;;;;;9.47;100.00;99156.42;1729203;82;21207;-61
2022/09/23 02:59:29;;;;;;;2.65;2.45;;;;;;;9.48;100.00;99158.56;1730141;81;21557;-63
2022/09/23 03:02:28;;;;;;;2.35;1.90;;;;;;;9.45;100.00;99166.48;1726740;81;21068;-62
2022/09/23 03:05:11;;;;;;;3.90;2.10;;;;;;;9.45;100.00;99164.72;1728000;81;21524;-61
2022/09/23 03:07:58;;;;;;;2.47;2.20;;;;;;;9.50;100.00;99168.44;1742671;81;21112;-62
2022/09/23 03:10:55;;;;;;;2.20;1.90;;;;;;;9.52;100.00;99164.87;1701181;82;21099;-61
2022/09/23 03:13:45;;;;;;;2.08;1.90;;;;;;;9.57;100.00;99169.42;1729957;82;21017;-61
2022/09/23 03:16:21;;;;;;;2.45;2.00;;;;;;;9.58;100.00;99165.08;1709597;81;21074;-62
2022/09/23 03:18:55;;;;;;;1.90;1.60;;;;;;;9.58;100.00;99165.92;1734481;81;21056;-61
2022/09/23 03:21:32;;;;;;;2.70;2.50;;;;;;;9.59;100.00;99166.28;1729457;81;21770;-62
2022/09/23 03:24:01;;;;;;;2.55;2.35;;;;;;;9.60;100.00;99170.56;1738162;81;22380;-61
2022/09/23 03:26:30;;;;;;;2.02;1.90;;;;;;;9.57;100.00;99175.06;1735304;81;21064;-62
2022/09/23 03:28:57;;;;;;;2.30;2.10;;;;;;;9.55;100.00;99172.53;1742206;81;20982;-61
2022/09/23 03:31:24;;;;;;;3.12;2.08;;;;;;;9.55;100.00;99176.43;1731701;81;20961;-62
2022/09/23 03:33:54;;;;;;;2.85;2.12;;;;;;;9.53;100.00;99168.31;1734036;81;21224;-62
2022/09/23 03:39:15;;;;;;;2.33;2.12;;;;;;;9.48;100.00;99168.50;1736019;81;21162;-61
2022/09/23 03:41:49;;;;;;;3.17;2.00;;;;;;;9.47;100.00;99172.45;1730125;81;21225;-61
2022/09/23 03:44:17;;;;;;;5.15;2.92;;;;;;;9.46;100.00;99172.91;1736317;81;20958;-61
2022/09/23 03:46:48;;;;;;;2.70;2.47;;;;;;;9.45;100.00;99173.81;1698640;82;21686;-61
2022/09/23 03:49:27;;;;;;;2.33;2.05;;;;;;;9.45;100.00;99167.77;1708514;83;21588;-61
2022/09/23 03:51:54;;;;;;;2.87;2.30;;;;;;;9.44;100.00;99169.98;1704867;83;20989;-61
2022/09/23 03:54:21;;;;;;;3.35;2.30;;;;;;;9.42;100.00;99166.59;1687072;83;21505;-62
2022/09/23 03:56:48;;;;;;;2.17;1.98;;;;;;;9.40;100.00;99164.06;1701774;83;21425;-62
2022/09/23 03:59:15;;;;;;;3.20;2.83;;;;;;;9.41;100.00;99159.72;1709601;82;21154;-60
2022/09/23 04:01:42;;;;;;;3.15;2.15;;;;;;;9.43;100.00;99160.50;1727076;81;20993;-61
2022/09/23 04:04:11;;;;;;;2.55;2.35;;;;;;;9.46;100.00;99154.73;1734615;81;21105;-62
2022/09/23 04:06:37;;;;;;;6.25;2.50;;;;;;;9.48;100.00;99159.41;1697873;82;21084;-61
2022/09/23 04:09:04;;;;;;;2.70;2.30;;;;;;;9.48;100.00;99154.67;1693275;84;21233;-61
2022/09/23 04:11:32;;;;;;;2.85;1.80;;;;;;;9.49;100.00;99163.70;1730606;81;21164;-65
2022/09/23 04:13:59;;;;;;;4.72;3.05;;;;;;;9.51;100.00;99159.73;1742488;81;21005;-62
2022/09/23 04:16:26;;;;;;;5.03;2.62;;;;;;;9.50;100.00;99156.75;1736600;81;21066;-62
2022/09/23 04:18:53;;;;;;;7.80;2.33;;;;;;;9.53;100.00;99151.44;1727720;81;20994;-62
2022/09/23 04:21:20;;;;;;;3.55;2.20;;;;;;;9.57;100.00;99154.30;1729365;81;20965;-62
2022/09/23 04:23:46;;;;;;;4.22;2.55;;;;;;;9.61;100.00;99152.78;1729093;81;21149;-62
2022/09/23 04:26:15;;;;;;;3.67;2.00;;;;;;;9.68;100.00;99154.22;1737623;81;21522;-62
2022/09/23 04:28:41;;;;;;;3.83;2.50;;;;;;;9.72;100.00;99146.30;1736217;81;20954;-62
2022/09/23 04:31:08;;;;;;;4.60;2.65;;;;;;;9.74;100.00;99149.22;1729959;81;21082;-62
2022/09/23 04:33:36;;;;;;;4.53;2.72;;;;;;;9.76;100.00;99151.30;1737074;81;21226;-62
2022/09/23 04:36:04;;;;;;;5.90;2.52;;;;;;;9.79;100.00;99156.34;1736990;81;22268;-62
2022/09/23 04:38:30;;;;;;;5.30;2.25;;;;;;;9.81;100.00;99154.52;1698143;83;21612;-62
2022/09/23 04:40:57;;;;;;;3.22;2.35;;;;;;;9.83;100.00;99157.90;1735700;81;21113;-62
2022/09/23 04:43:24;;;;;;;5.03;2.62;;;;;;;9.84;100.00;99153.09;1675955;83;21084;-63
2022/09/23 04:46:03;;;;;;;6.05;2.72;;;;;;;9.85;100.00;99152.64;1740473;81;20985;-62
2022/09/23 04:48:29;;;;;;;3.15;2.10;;;;;;;9.88;100.00;99153.81;1742151;81;21173;-62
2022/09/23 04:51:15;;;;;;;2.65;2.45;;;;;;;9.88;100.00;99153.81;1696068;82;21207;-62
2022/09/23 04:53:43;;;;;;;3.08;2.70;;;;;;;9.86;100.00;99156.92;1694068;83;21840;-62
2022/09/23 04:56:15;;;;;;;4.70;2.62;;;;;;;9.83;100.00;99156.59;1695815;83;21167;-62
2022/09/23 04:58:42;;;;;;;3.45;2.98;;;;;;;9.83;100.00;99155.30;1732882;81;21058;-62
2022/09/23 05:01:24;;;;;;;3.98;2.90;;;;;;;9.85;100.00;99156.53;1697479;83;21223;-62
2022/09/23 05:04:01;;;;;;;4.70;4.20;;;;;;;9.80;100.00;99148.94;1733149;81;21220;-62
2022/09/23 05:06:28;;;;;;;7.03;5.70;;;;;;;9.79;100.00;99156.83;1739878;81;21577;-61
2022/09/23 05:08:56;;;;;;;2.62;2.42;;;;;;;9.79;100.00;99156.83;1702338;82;21030;-62
2022/09/23 05:11:24;;;;;;;3.95;2.37;;;;;;;9.80;100.00;99158.48;1739296;81;21057;-62
2022/09/23 05:13:52;;;;;;;3.02;2.62;;;;;;;9.83;100.00;99155.76;1738868;81;21256;-62
2022/09/23 05:16:20;;;;;;;7.60;3.98;;;;;;;9.82;100.00;99154.91;1745613;81;21204;-61
2022/09/23 05:18:47;;;;;;;2.42;2.22;;;;;;;9.85;100.00;99153.94;1742500;81;21039;-62
2022/09/23 05:21:16;;;;;;;2.77;2.50;;;;;;;9.88;100.00;99161.15;1736732;81;21128;-62
2022/09/23 05:23:59;;;;;;;3.08;2.77;;;;;;;9.93;100.00;99154.01;1733805;81;21001;-61
2022/09/23 05:26:24;;;;;;;4.78;3.00;;;;;;;9.96;100.00;99153.88;1727608;81;21552;-61
2022/09/23 05:28:51;;;;;;;3.58;3.27;;;;;;;9.98;100.00;99153.81;1723091;81;21054;-62
2022/09/23 05:31:20;;;;;;;3.33;2.92;;;;;;;10.02;100.00;99155.34;1732898;80;21053;-62
2022/09/23 05:33:50;;;;;;;2.27;2.08;;;;;;;10.02;100.00;99151.44;1712715;83;20995;-62
2022/09/23 05:36:19;;;;;;;2.83;2.40;;;;;;;10.02;100.00;99150.14;1709312;83;20966;-62
2022/09/23 05:38:48;;;;;;;3.22;2.70;;;;;;;10.01;100.00;99156.25;1707005;83;21113;-62
2022/09/23 05:41:15;;;;;;;3.58;2.90;;;;;;;9.96;100.00;99155.17;1727986;81;21129;-60
2022/09/23 05:43:43;;;;;;;3.17;2.70;;;;;;;9.93;100.00;99153.16;1683826;83;21651;-62
2022/09/23 05:46:15;;;;;;;3.10;2.45;;;;;;;9.88;100.00;99155.95;1742444;81;21077;-62
2022/09/23 05:48:41;;;;;;;3.10;2.80;;;;;;;9.88;100.00;99151.22;1747541;81;21033;-62
2022/09/23 05:51:17;;;;;;;3.12;2.42;;;;;;;9.87;100.00;99162.52;1687054;83;20967;-62
2022/09/23 05:53:44;;;;;;;3.98;2.45;;;;;;;9.85;100.00;99154.78;1659216;84;21618;-63
2022/09/23 05:56:13;;;;;;;5.40;3.60;;;;;;;9.87;100.00;99159.46;1717162;81;21041;-63
2022/09/23 05:58:40;;;;;;;3.87;3.02;;;;;;;9.92;100.00;99164.46;1747900;81;21070;-61
2022/09/23 06:01:12;;;;;;;3.05;2.80;;;;;;;10.00;100.00;99158.00;1720847;82;21549;-62
2022/09/23 06:03:46;;;;;;;3.75;2.83;;;;;;;10.07;100.00;99158.59;1731472;81;21190;-63
2022/09/23 06:06:17;;;;;;;3.35;2.47;;;;;;;10.13;100.00;99159.62;1720624;80;21077;-62
2022/09/23 06:08:47;;;;;;;4.33;3.37;;;;;;;10.19;100.00;99153.35;1706206;82;21052;-62
2022/09/23 06:11:17;;;;;;;6.42;3.05;;;;;;;10.27;100.00;99161.17;1707870;81;21053;-67
2022/09/23 06:13:45;;;;;;;3.58;2.75;;;;;;;10.35;100.00;99160.38;1713657;82;21042;-64
2022/09/23 06:16:14;;;;;;;3.15;2.52;;;;;;;10.39;100.00;99166.75;1730154;81;21097;-62
2022/09/23 06:18:44;;;;;;;4.70;2.85;;;;;;;10.47;100.00;99165.47;1730858;81;21143;-62
2022/09/23 06:21:13;;;;;;;4.50;2.75;;;;;;;10.55;100.00;99165.13;1722564;81;21572;-62
2022/09/23 06:23:42;;;;;;;7.70;4.20;;;;;;;10.63;100.00;99165.14;1720875;81;21099;-61
2022/09/23 06:26:12;;;;;;;5.33;2.67;;;;;;;10.72;100.00;99169.53;1705593;81;21104;-61
2022/09/23 06:28:42;;;;;;;7.05;2.90;;;;;;;10.85;100.00;99168.03;1723525;81;21948;-61
2022/09/23 06:31:12;;;;;;;4.83;3.12;;;;;;;10.94;100.00;99167.16;1744445;81;20988;-64
2022/09/23 06:33:42;;;;;;;4.10;2.90;;;;;;;11.01;100.00;99169.83;1712484;81;21562;-61
2022/09/23 06:36:09;;;;;;;4.28;2.80;;;;;;;11.14;100.00;99168.80;1708137;81;21507;-62
2022/09/23 06:38:42;;;;;;;8.18;2.95;;;;;;;11.22;100.00;99172.31;1718861;81;21852;-62
2022/09/23 06:41:11;;;;;;;4.90;2.70;;;;;;;11.26;100.00;99175.16;1711827;82;21174;-62
2022/09/23 06:43:40;;;;;;;5.00;2.22;;;;;;;11.27;100.00;99171.64;1682815;84;21052;-61
2022/09/23 06:46:07;;;;;;;2.37;1.90;;;;;;;11.25;100.00;99177.37;1722984;81;21127;-62
2022/09/23 06:48:34;;;;;;;2.85;1.92;;;;;;;11.23;99.78;99171.40;1695283;83;21077;-62
2022/09/23 06:51:04;;;;;;;4.47;1.95;;;;;;;11.18;99.44;99176.01;1710719;82;21701;-61
2022/09/23 06:53:31;;;;;;;1.60;1.50;;;;;;;11.11;99.30;99172.84;1698606;82;21944;-62
2022/09/23 06:56:06;;;;;;;2.33;1.37;;;;;;;11.08;100.00;99174.75;1679692;81;21057;-61
2022/09/23 06:58:34;;;;;;;7.12;2.42;;;;;;;11.04;99.92;99176.66;1697577;82;21125;-64
2022/09/23 07:01:07;;;;;;;6.70;2.20;;;;;;;11.04;100.00;99179.25;1719979;81;21164;-62
2022/09/23 07:03:35;;;;;;;2.90;1.87;;;;;;;11.09;100.00;99175.98;1740507;81;21065;-65
2022/09/23 07:06:03;;;;;;;6.42;2.52;;;;;;;11.16;100.00;99178.69;1736421;81;21172;-66
2022/09/23 07:08:32;;;;;;;7.03;2.72;;;;;;;11.14;99.90;99170.10;1734437;80;21384;-62
2022/09/23 07:11:02;;;;;;;3.45;2.02;;;;;;;11.15;99.80;99168.34;1733663;82;21045;-62
2022/09/23 07:13:29;;;;;;;3.50;1.77;;;;;;;11.16;98.88;99170.87;1676190;83;21254;-63
2022/09/23 07:15:57;;;;;;;9.63;3.08;;;;;;;11.14;98.44;99174.01;1700658;82;21596;-62
2022/09/23 07:18:24;;;;;;;7.95;3.22;;;;;;;11.14;98.79;99176.61;1742930;81;21157;-62
2022/09/23 07:20:52;;;;;;;4.42;2.37;;;;;;;11.14;99.33;99175.77;1719124;82;22098;-63
2022/09/23 07:23:19;;;;;;;5.67;2.55;;;;;;;11.16;99.73;99172.17;1716443;82;21042;-62
2022/09/23 07:25:48;;;;;;;5.05;3.30;;;;;;;11.21;99.17;99173.23;1706622;82;21101;-64
2022/09/23 07:28:15;;;;;;;5.25;2.90;;;;;;;11.27;98.92;99169.03;1743814;81;21100;-62
2022/09/23 07:30:44;;;;;;;3.22;2.92;;;;;;;11.33;98.61;99169.59;1730942;80;21322;-62
2022/09/23 07:33:10;;;;;;;3.58;2.12;;;;;;;11.41;97.02;99170.49;1736761;80;21036;-62
2022/09/23 07:35:39;;;;;;;7.25;2.10;;;;;;;11.50;94.78;99171.81;1682164;83;20973;-62
2022/09/23 07:38:08;;;;;;;3.25;2.00;;;;;;;11.54;94.06;99165.08;1736988;81;21136;-62
2022/09/23 07:40:35;;;;;;;5.67;3.12;;;;;;;11.64;94.17;99166.73;1701040;82;21111;-61
2022/09/23 07:43:04;;;;;;;6.90;3.12;;;;;;;11.76;93.38;99163.99;1694629;82;21113;-63
2022/09/23 07:45:33;;;;;;;5.83;2.60;;;;;;;11.85;92.32;99163.08;1703136;82;21049;-62
2022/09/23 07:48:11;;;;;;;3.65;2.60;;;;;;;11.90;91.10;99158.94;1717667;81;20966;-64
2022/09/23 07:50:46;;;;;;;8.73;2.70;;;;;;;11.92;90.43;99160.55;1719065;81;21137;-61
2022/09/23 07:53:17;;;;;;;5.58;3.10;;;;;;;11.98;90.97;99159.39;1691293;83;21069;-61
2022/09/23 07:55:52;;;;;;;4.73;2.87;;;;;;;12.08;91.07;99151.46;1716905;81;21282;-61
2022/09/23 07:58:20;;;;;;;5.72;2.58;;;;;;;12.15;89.44;99152.83;1709920;82;20998;-61
2022/09/23 08:00:52;;;;;;;2.80;1.95;;;;;;;12.15;89.67;99161.95;1732765;82;21156;-61
2022/09/23 08:03:19;;;;;;;4.25;2.10;;;;;;;12.15;88.86;99155.90;1717493;82;21112;-61
2022/09/23 08:05:49;;;;;;;6.70;2.80;;;;;;;12.11;88.16;99153.06;1722271;82;20983;-61
2022/09/23 08:08:16;;;;;;;12.23;3.25;;;;;;;12.12;88.42;99150.84;1715983;82;21240;-61
2022/09/23 08:10:46;;;;;;;5.87;2.60;;;;;;;12.17;88.39;99154.05;1715080;82;21057;-62
2022/09/23 08:13:16;;;;;;;2.45;2.10;;;;;;;12.25;88.48;99140.97;1668916;85;21079;-62
2022/09/23 08:15:47;;;;;;;3.75;2.02;;;;;;;12.36;86.63;99143.02;1643477;85;21899;-60
2022/09/23 08:18:17;;;;;;;5.25;2.00;;;;;;;12.49;85.47;99141.89;1681068;84;21549;-61
2022/09/23 08:20:46;;;;;;;1.50;1.40;;;;;;;12.60;82.97;99139.52;1677805;83;21123;-61
2022/09/23 08:23:15;;;;;;;8.93;2.60;;;;;;;12.70;80.58;99134.19;1696209;83;21062;-61
2022/09/23 08:25:42;;;;;;;1.77;1.62;;;;;;;12.78;81.12;99142.45;1714666;82;20983;-62
2022/09/23 08:34:35;;;;;;;6.22;2.33;;;;;;;12.93;78.41;99136.36;1714914;82;21522;-62
2022/09/23 08:37:02;;;;;;;2.15;1.87;;;;;;;12.96;78.37;99126.22;1731824;81;21915;-62
2022/09/23 08:39:30;;;;;;;1.98;1.32;;;;;;;13.04;76.79;99131.83;1725129;82;21188;-61
2022/09/23 08:42:17;;;;;;;2.25;1.30;;;;;;;13.17;76.34;99125.49;1714441;82;21073;-61
2022/09/23 08:45:11;;;;;;;5.83;1.65;;;;;;;13.33;75.37;99123.67;1704102;82;21178;-61
2022/09/23 08:47:56;;;;;;;4.62;2.15;;;;;;;13.55;74.64;99113.65;1671981;85;21192;-61
2022/09/23 08:50:31;;;;;;;3.83;1.98;;;;;;;13.72;74.54;99114.79;1664772;85;21148;-61
2022/09/23 08:53:15;;;;;;;4.22;2.47;;;;;;;13.72;74.54;99114.79;1678102;85;21133;-61
2022/09/23 08:55:47;;;;;;;5.10;2.72;;;;;;;13.73;74.78;99116.47;1677378;85;21183;-62
2022/09/23 08:58:37;;;;;;;10.30;2.10;;;;;;;13.78;75.10;99117.05;1677267;83;21107;-61
2022/09/23 09:01:43;;;;;;;2.95;1.80;;;;;;;13.95;73.01;99116.48;1699070;83;21267;-61
2022/09/23 09:04:17;;;;;;;3.58;2.10;;;;;;;14.00;73.37;99110.02;1712418;83;20958;-62
2022/09/23 09:06:53;;;;;;;2.08;1.87;;;;;;;14.00;73.37;99110.02;1711009;83;21077;-61
2022/09/23 09:09:59;;;;;;;5.15;2.72;;;;;;;14.06;73.58;99110.13;1710450;83;21065;-62
2022/09/23 09:12:57;;;;;;;4.12;2.12;;;;;;;14.11;73.41;99117.22;1691190;83;21092;-62
2022/09/23 09:15:26;;;;;;;2.80;2.10;;;;;;;14.16;71.77;99117.79;1696296;83;21209;-61
2022/09/23 09:18:08;;;;;;;2.33;1.92;;;;;;;14.09;71.80;99116.47;1699233;83;21438;-60
2022/09/23 09:21:12;;;;;;;2.00;1.70;;;;;;;14.09;71.80;99116.47;1704593;83;20994;-61
2022/09/23 09:23:55;;;;;;;5.78;1.67;;;;;;;14.14;72.29;99111.81;1703015;84;21001;-61
2022/09/23 09:26:33;;;;;;;9.08;1.85;;;;;;;14.26;70.87;99103.66;1705445;83;21169;-60
2022/09/23 09:29:18;;;;;;;5.12;1.87;;;;;;;14.28;70.84;99105.71;1707872;83;22303;-62
2022/09/23 09:31:47;;;;;;;5.70;2.50;;;;;;;14.30;70.75;99103.38;1695276;83;21311;-60
2022/09/23 09:34:31;;;;;;;4.60;2.08;;;;;;;14.34;70.12;99097.02;1697855;83;21053;-61
2022/09/23 09:37:39;;;;;;;1.72;1.42;;;;;;;14.38;70.67;99097.68;1704832;83;20989;-61
2022/09/23 09:40:10;;;;;;;1.67;1.40;;;;;;;14.49;70.00;99103.09;1698767;83;20962;-61
2022/09/23 09:42:41;;;;;;;3.35;1.95;;;;;;;14.55;68.01;99100.09;1700490;82;21936;-61
2022/09/23 09:45:40;;;;;;;2.62;1.85;;;;;;;14.44;68.51;99095.99;1730489;82;21112;-61
2022/09/23 09:48:19;;;;;;;1.70;1.57;;;;;;;14.36;68.70;99100.39;1728872;81;20966;-61
2022/09/23 09:50:50;;;;;;;6.87;2.00;;;;;;;14.25;69.09;99108.52;1729366;80;21044;-61
2022/09/23 09:53:30;;;;;;;2.02;1.80;;;;;;;14.03;69.45;99101.15;1755889;80;20923;-61
2022/09/23 09:56:08;;;;;;;2.67;1.30;;;;;;;13.74;70.56;99109.47;1752755;81;21313;-61
2022/09/23 09:58:59;;;;;;;0.88;0.88;;;;;;;13.42;73.06;99115.28;1728896;82;21049;-61
2022/09/23 10:01:32;;;;;;;0.80;0.70;;;;;;;12.69;77.63;99111.63;1714708;81;21101;-60
2022/09/23 10:04:00;;;;;;;;;;;;;;;12.69;77.63;99111.63;1689257;83;21565;-63
2022/09/23 10:06:31;;;;;;;0.90;0.88;;;;;;;12.37;79.97;99113.41;1710085;83;20161;-60
2022/09/23 10:09:14;;;;;;;1.45;1.00;;;;;;;12.08;83.28;99113.20;1727370;82;21124;-62
2022/09/23 10:11:41;;;;;;;1.57;0.95;;;;;;;11.95;84.91;99112.64;1736388;80;21042;-63
2022/09/23 10:14:17;;;;;;;7.78;1.25;;;;;;;11.97;86.20;99112.94;1731143;82;21004;-62
2022/09/23 10:16:47;;;;;;;2.17;1.10;;;;;;;12.01;86.47;99109.69;1719356;82;21491;-63
2022/09/23 10:19:29;;;;;;;1.35;1.22;;;;;;;12.07;87.48;99108.06;1731960;81;20978;-62
2022/09/23 10:22:00;;;;;;;2.30;1.05;;;;;;;12.16;88.46;99109.35;1734995;82;21209;-63
2022/09/23 10:24:35;;;;;;;1.70;1.20;;;;;;;12.25;87.71;99094.05;1663610;85;20974;-62
2022/09/23 10:27:10;;;;;;;2.30;1.15;;;;;;;12.32;86.85;99098.01;1649459;84;21546;-63
2022/09/23 10:29:51;;;;;;;4.83;1.60;;;;;;;12.35;84.82;99096.55;1684532;83;21429;-62
2022/09/23 10:32:40;;;;;;;4.00;1.00;;;;;;;12.36;82.90;99093.47;1658174;85;20954;-61
2022/09/23 10:35:15;;;;;;;2.55;1.57;;;;;;;12.38;82.23;99092.93;1656480;84;21293;-61
2022/09/23 10:37:55;;;;;;;4.05;0.90;;;;;;;12.42;81.79;99090.51;1696028;83;21075;-63
2022/09/23 10:47:08;;;;;;;4.47;2.22;;;;;;;12.53;82.31;99087.33;1715131;80;21590;-62
2022/09/23 10:49:56;;;;;;;3.58;1.50;;;;;;;12.54;83.92;99087.24;1740210;81;21639;-63
2022/09/23 10:52:50;;;;;;;3.17;1.20;;;;;;;12.59;85.64;99082.59;1723896;81;21008;-64
2022/09/23 10:55:47;;;;;;;1.50;1.00;;;;;;;12.57;85.64;99081.02;1734507;81;21005;-64
2022/09/23 10:58:30;;;;;;;3.10;1.52;;;;;;;12.39;84.83;99083.69;1727251;81;21189;-62
2022/09/23 11:01:26;;;;;;;5.10;2.58;;;;;;;12.22;85.49;99083.77;1711563;81;21076;-63
2022/09/23 11:04:20;;;;;;;3.00;1.20;;;;;;;12.18;86.86;99086.66;1732152;81;21231;-63
2022/09/23 11:07:09;;;;;;;2.77;0.90;;;;;;;12.23;86.71;99090.67;1728636;81;20993;-62
2022/09/23 11:10:12;;;;;;;2.35;0.70;;;;;;;12.36;84.91;99081.28;1668819;82;21025;-61
2022/09/23 11:12:58;;;;;;;4.20;1.10;;;;;;;12.62;84.69;99079.81;1723461;82;21065;-61
2022/09/23 11:15:53;;;;;;;6.28;1.20;;;;;;;12.88;83.57;99082.27;1732264;81;21492;-62
2022/09/23 11:18:50;;;;;;;1.15;0.95;;;;;;;13.01;80.73;99084.54;1734987;82;21310;-63
2022/09/23 11:21:57;;;;;;;1.72;1.07;;;;;;;12.93;76.85;99084.63;1704050;83;21136;-62
2022/09/23 11:25:05;;;;;;;5.95;1.30;;;;;;;12.74;74.58;99091.34;1684074;83;21205;-62
2022/09/23 11:28:06;;;;;;;1.20;0.98;;;;;;;12.62;77.08;99095.47;1710754;82;21513;-67
2022/09/23 11:30:46;;;;;;;1.20;0.53;;;;;;;12.67;76.12;99090.00;1719885;81;21205;-60
2022/09/23 11:33:36;;;;;;;2.65;1.20;;;;;;;12.70;77.05;99092.44;1729383;81;21243;-61
2022/09/23 11:36:12;;;;;;;2.58;0.90;;;;;;;12.65;79.69;99097.91;1732143;81;21006;-61
2022/09/23 11:38:47;;;;;;;2.75;1.50;;;;;;;12.62;81.24;99092.86;1719788;82;21222;-61
2022/09/23 11:41:33;;;;;;;1.05;0.70;;;;;;;12.59;81.85;99089.11;1724241;81;21076;-62
2022/09/23 11:44:04;;;;;;;0.40;0.40;;;;;;;12.60;83.49;99087.34;1736636;80;21014;-61
2022/09/23 11:46:39;;;;;;;0.30;0.30;;;;;;;12.62;84.66;99089.41;1736492;81;21186;-61
2022/09/23 11:49:31;;;;;;;0.65;0.50;;;;;;;12.61;84.59;99088.56;1711718;82;21509;-62
2022/09/23 11:52:09;;;;;;;1.35;0.70;;;;;;;12.57;84.70;99091.45;1697871;83;21088;-62
2022/09/23 11:55:14;;;;;;;0.82;0.50;;;;;;;12.52;85.66;99083.88;1699415;83;21040;-62
2022/09/23 11:58:00;;;;;;;4.42;2.08;;;;;;;12.47;86.11;99089.80;1692817;83;21115;-62
2022/09/23 12:00:33;;;;;;;3.37;1.25;;;;;;;12.42;86.78;99087.44;1702981;82;21977;-62
2022/09/23 12:03:42;;;;;;;1.92;1.22;;;;;;;12.42;87.32;99092.66;1700620;83;20942;-62
2022/09/23 12:06:19;;;;;;;0.80;0.80;;;;;;;12.40;88.64;99092.36;1707485;82;20961;-62
2022/09/23 12:08:52;;;;;;;0.65;0.60;;;;;;;12.34;89.44;99083.12;1732389;81;21243;-64
2022/09/23 12:11:36;;;;;;;1.37;1.10;;;;;;;12.33;89.36;99090.56;1720912;82;21065;-61
2022/09/23 12:14:49;;;;;;;1.10;0.90;;;;;;;12.29;89.68;99086.44;1725589;81;21255;-62
2022/09/23 12:17:42;;;;;;;2.20;1.00;;;;;;;12.25;90.40;99078.39;1722518;81;21159;-62
2022/09/23 12:20:40;;;;;;;3.80;2.35;;;;;;;12.25;90.92;99075.78;1723123;80;20958;-62
2022/09/23 12:23:31;;;;;;;1.72;1.27;;;;;;;12.28;91.76;99078.70;1731048;81;21604;-63
2022/09/23 12:26:05;;;;;;;1.35;1.22;;;;;;;12.33;91.54;99079.30;1721878;82;21069;-62
2022/09/23 12:28:43;;;;;;;1.40;0.82;;;;;;;12.33;91.69;99078.83;1705222;83;21228;-63
2022/09/23 12:31:17;;;;;;;2.15;1.32;;;;;;;12.31;91.55;99081.14;1695666;82;21092;-63